CW9533 Torre Faro Messina IT current weather conditions

sailwx.info

Wind from 146 at 5 knots gusting 8

Air temperature 22.8° C
Dewpoint 17.9° C

Last reported at 2016-Aug-25 03:48 UTC.
Time now 2016-Aug-25 04:28 UTC

Location: N 38°16' E 015°39'.
View on Google Maps.

See reports from other nearby stations

  
Tides and Currents Weather Stations Pressure Air Temp Water Temp Dewpoint Dewpoint Depression Visibility Wind Speed Wind Dir Waves Ship Positions
date/time (UTC)wind fromknots sea level pressurealtimeterstation pressurevisibilityair tempwater tempwave heightnotes
2016-Aug-25 03:48 146 5 gusting 8 22.8
2016-Aug-25 03:33 146 4 gusting 10 22.2
2016-Aug-25 03:18 146 3 gusting 9 22.2
2016-Aug-25 03:03 146 2 gusting 11 22.2
2016-Aug-25 02:48 146 4 gusting 13 22.2
2016-Aug-25 02:33 146 4 gusting 11 22.8
2016-Aug-25 02:18 146 5 gusting 10 22.2
2016-Aug-25 02:03 146 5 gusting 8 22.2
2016-Aug-25 01:48 159 3 gusting 6 22.2
2016-Aug-25 01:33 160 22.2
2016-Aug-25 01:18 160 22.8
2016-Aug-25 01:03 160 22.8
2016-Aug-25 00:48 160 22.8
2016-Aug-25 00:33 161 22.8
2016-Aug-25 00:18 163 22.2
2016-Aug-25 00:03 165 22.2
2016-Aug-24 23:48 166 22.2
2016-Aug-24 23:32 169 21.7
2016-Aug-24 23:17 171 21.1
2016-Aug-24 23:02 170 21.1
2016-Aug-24 22:47 170 20.6
2016-Aug-24 22:32 170 20.6
2016-Aug-24 22:17 161 20.6
2016-Aug-24 22:02 145 20.6
2016-Aug-24 21:47 145 20.0
2016-Aug-24 21:32 145 20.6
2016-Aug-24 21:17 146 21.7
2016-Aug-24 21:02 145 21.1
2016-Aug-24 20:47 144 21.1
2016-Aug-24 20:32 144 20.6
2016-Aug-24 20:17 144 20.6
2016-Aug-24 20:02 144 20.6
2016-Aug-24 19:47 145 19.4
2016-Aug-24 19:32 145 4 gusting 15 18.9
2016-Aug-24 19:17 144 5 gusting 14 18.9
2016-Aug-24 19:02 146 20.6
2016-Aug-24 18:47 147 4 gusting 9 23.9
2016-Aug-24 18:32 147 23.3
2016-Aug-24 18:17 146 23.3
2016-Aug-24 18:02 144 23.3
2016-Aug-24 17:47 146 23.3
2016-Aug-24 17:32 146 23.3
2016-Aug-24 17:17 146 23.3
2016-Aug-24 17:02 147 23.3
2016-Aug-24 16:47 147 0 gusting 4 23.9
2016-Aug-24 16:32 147 1 gusting 6 23.9
2016-Aug-24 16:17 147 1 gusting 5 24.4
2016-Aug-24 16:02 147 24.4
2016-Aug-24 15:47 146 0 gusting 7 25.6
2016-Aug-24 15:32 146 3 gusting 12 26.1
2016-Aug-24 15:17 146 6 gusting 12 26.1
2016-Aug-24 15:02 146 6 gusting 13 26.1
2016-Aug-24 14:47 146 8 gusting 15 25.6
2016-Aug-24 14:32 146 5 gusting 13 25.6
2016-Aug-24 14:17 146 6 gusting 12 25.0
2016-Aug-24 14:02 146 5 gusting 10 24.4
2016-Aug-24 13:47 146 5 gusting 10 24.4
2016-Aug-24 13:32 146 6 gusting 12 24.4
2016-Aug-24 13:17 146 6 gusting 14 25.6
2016-Aug-24 13:02 146 5 gusting 13 25.6
2016-Aug-24 12:47 146 6 gusting 15 25.6
2016-Aug-24 12:32 146 7 gusting 15 26.1
2016-Aug-24 12:17 146 8 gusting 15 26.7
2016-Aug-24 12:02 146 7 gusting 12 26.7
2016-Aug-24 11:47 146 6 gusting 13 25.0
2016-Aug-24 11:32 146 7 gusting 13 24.4
2016-Aug-24 11:17 146 6 gusting 13 25.0
2016-Aug-24 11:02 146 6 gusting 13 25.0
2016-Aug-24 10:47 146 7 gusting 13 24.4
2016-Aug-24 10:32 146 8 gusting 13 25.0
2016-Aug-24 10:17 146 6 gusting 12 25.0
2016-Aug-24 10:02 146 10 gusting 15 25.0
2016-Aug-24 09:47 146 6 gusting 13 25.0
2016-Aug-24 09:31 146 6 gusting 12 25.0
2016-Aug-24 09:16 146 6 gusting 13 24.4
2016-Aug-24 09:01 146 7 gusting 13 24.4
2016-Aug-24 08:46 146 4 gusting 11 24.4
2016-Aug-24 08:32 145 6 gusting 12 23.9
2016-Aug-24 08:17 145 6 gusting 10 23.9
2016-Aug-24 08:01 145 5 gusting 8 23.9
2016-Aug-24 07:46 145 6 gusting 12 23.3
2016-Aug-24 07:31 145 4 gusting 7 23.3
2016-Aug-24 07:16 145 5 gusting 8 22.8
2016-Aug-24 07:01 145 4 gusting 7 22.8
2016-Aug-24 06:46 145 4 gusting 8 22.2
2016-Aug-24 06:31 145 3 gusting 7 21.7
2016-Aug-24 06:16 145 3 gusting 8 21.1
2016-Aug-24 06:01 145 4 gusting 6 20.6
2016-Aug-24 05:46 145 2 gusting 10 20.6
2016-Aug-24 05:31 145 5 gusting 10 20.6
2016-Aug-24 05:16 144 6 gusting 11 20.6
2016-Aug-24 05:01 145 5 gusting 10 20.6
2016-Aug-24 04:46 144 5 gusting 10 21.1
2016-Aug-24 04:31 145 5 gusting 9 20.6
2016-Aug-24 04:16 144 4 gusting 9 20.6
2016-Aug-24 04:01 144 5 gusting 9 20.6
2016-Aug-24 03:46 144 6 gusting 10 20.6
2016-Aug-24 03:31 145 3 gusting 12 20.6
2016-Aug-24 03:16 145 5 gusting 11 20.6
2016-Aug-24 03:01 145 5 gusting 11 21.1
2016-Aug-24 02:46 145 1 gusting 7 21.7
2016-Aug-24 02:31 144 21.7
2016-Aug-24 02:16 145 3 gusting 7 21.7
2016-Aug-24 02:01 145 5 gusting 7 21.7
2016-Aug-24 01:46 145 4 gusting 6 21.7
2016-Aug-24 01:31 145 4 gusting 9 21.7
2016-Aug-24 01:16 145 4 gusting 8 21.7
2016-Aug-24 01:01 144 4 gusting 6 21.7
2016-Aug-24 00:46 145 5 gusting 10 21.7
2016-Aug-24 00:31 145 6 gusting 9 21.7
2016-Aug-24 00:16 145 4 gusting 8 21.7
2016-Aug-24 00:01 145 4 gusting 8 21.7
2016-Aug-23 23:46 145 3 gusting 9 21.7
2016-Aug-23 23:31 145 5 gusting 10 21.7
2016-Aug-23 23:16 145 6 gusting 12 21.7
2016-Aug-23 23:01 144 4 gusting 7 21.1
2016-Aug-23 22:46 144 4 gusting 8 21.1
2016-Aug-23 22:31 144 3 gusting 8 21.1
2016-Aug-23 22:16 144 4 gusting 7 21.1
2016-Aug-23 22:00 145 4 gusting 8 21.1
2016-Aug-23 21:45 145 2 gusting 7 21.7
2016-Aug-23 21:30 144 6 gusting 12 21.7
2016-Aug-23 21:15 144 9 gusting 13 22.2
2016-Aug-23 21:01 144 3 gusting 9 22.2
2016-Aug-23 20:45 144 5 gusting 11 22.2
2016-Aug-23 20:31 144 2 gusting 10 22.2
2016-Aug-23 20:15 144 4 gusting 11 22.2
2016-Aug-23 20:01 144 4 gusting 7 22.2
2016-Aug-23 19:45 144 2 gusting 9 22.2
2016-Aug-23 19:30 144 4 gusting 9 22.2
2016-Aug-23 19:15 144 3 gusting 8 22.2
2016-Aug-23 19:00 145 3 gusting 6 22.2
2016-Aug-23 18:46 143 22.2
2016-Aug-23 18:30 144 21.7
2016-Aug-23 18:15 172 21.7
2016-Aug-23 18:00 172 6 gusting 23 21.7
2016-Aug-23 17:45 146 6 gusting 13 24.4
2016-Aug-23 17:30 146 3 gusting 10 24.4
2016-Aug-23 17:15 146 2 gusting 16 25.0
2016-Aug-23 17:00 146 5 gusting 13 25.0
2016-Aug-23 16:45 146 4 gusting 11 25.0
2016-Aug-23 16:30 146 4 gusting 10 24.4
2016-Aug-23 16:15 146 8 gusting 14 25.0
2016-Aug-23 16:00 146 3 gusting 17 25.0
2016-Aug-23 15:45 146 11 gusting 15 25.6
2016-Aug-23 15:30 146 4 gusting 13 25.6
2016-Aug-23 15:15 146 6 gusting 15 25.0
2016-Aug-23 15:00 146 7 gusting 16 25.6
2016-Aug-23 14:45 146 5 gusting 16 26.1
2016-Aug-23 14:30 145 6 gusting 13 25.6
2016-Aug-23 14:15 146 6 gusting 17 25.6
2016-Aug-23 14:00 145 7 gusting 15 25.6
2016-Aug-23 13:45 145 6 gusting 14 26.1
2016-Aug-23 13:30 146 6 gusting 11 26.1
2016-Aug-23 13:15 146 5 gusting 12 26.1
2016-Aug-23 13:01 146 6 gusting 14 26.1
2016-Aug-23 12:45 146 6 gusting 14 26.1
2016-Aug-23 12:30 146 4 gusting 13 26.1
2016-Aug-23 12:15 146 3 gusting 13 26.1
2016-Aug-23 12:00 146 5 gusting 17 26.1
2016-Aug-23 11:45 146 6 gusting 9 26.1
2016-Aug-23 11:30 171 0 gusting 7 26.1
2016-Aug-23 11:15 153 4 gusting 8 25.6
2016-Aug-23 11:00 146 25.0
2016-Aug-23 10:45 146 4 gusting 12 25.6
2016-Aug-23 10:30 147 5 gusting 14 25.6
2016-Aug-23 10:15 146 2 gusting 13 26.1
2016-Aug-23 10:00 146 7 gusting 18 25.6
2016-Aug-23 09:45 146 7 gusting 15 24.4
2016-Aug-23 09:30 171 3 gusting 7 24.4
2016-Aug-23 09:15 171 24.4
2016-Aug-23 09:00 173 6 gusting 13 23.9
2016-Aug-23 08:45 173 6 gusting 15 24.4
2016-Aug-23 08:30 171 4 gusting 10 25.0
2016-Aug-23 08:15 171 4 gusting 9 25.0
2016-Aug-23 08:00 171 6 gusting 10 24.4
2016-Aug-23 07:45 171 2 gusting 10 24.4
2016-Aug-23 07:30 171 3 gusting 8 24.4
2016-Aug-23 07:15 171 4 gusting 9 24.4
2016-Aug-23 07:00 171 1 gusting 4 24.4
2016-Aug-23 06:45 171 0 gusting 5 24.4
2016-Aug-23 06:30 171 23.9
2016-Aug-23 06:15 171 23.3
2016-Aug-23 06:00 171 4 gusting 8 23.9
2016-Aug-23 05:45 171 0 gusting 6 24.4
2016-Aug-23 05:30 171 6 gusting 10 25.0
2016-Aug-23 05:15 147 24.4
2016-Aug-23 05:00 147 1 gusting 5 24.4
2016-Aug-23 04:45 146 0 gusting 2 24.4
2016-Aug-23 04:30 146 0 gusting 3 24.4
2016-Aug-23 04:15 147 2 gusting 5 24.4
2016-Aug-23 04:00 147 0 gusting 4 23.9